Rostein — LLHI — position and weather

sailwx.info

Track history (hours):
 
Tides and Currents Weather Stations Pressure Air Temp Water Temp Dewpoint Dewpoint Depression Visibility Wind Speed Wind Dir Waves Ship Positions

Rostein

Last reported at 2016-Sep-10 19:33 UTC. Time now 2016-Sep-28 01:45 UTC.
Position N 69°16' E 017°58'.
Warning: this ship's position is 17 days out of date.

Length 57 m; draft 4 m.

Type: Cargo ship. MMSI: 257210000.

Date/timePositionNaut miles runAvg speedWind from/ knotsBaromVisibWave heightAir tempDewpointWater temp
2016-Sep-10 19:33N 69°16' E 017°58'9 9.0
2016-Sep-10 18:33N 69°08' E 017°45'114 3.7
2016-Sep-09 12:05N 67°38' E 014°38'810.3
2016-Sep-09 11:20N 67°37' E 014°58'0 0.0
2016-Sep-08 22:06N 67°37' E 014°59'5 8.3
2016-Sep-08 21:29N 67°37' E 014°45'7 7.5
2016-Sep-08 20:30N 67°42' E 014°31'106 8.8
2016-Sep-08 08:28N 69°14' E 016°51'104 5.8
2016-Sep-07 14:33N 67°44' E 014°31'7 7.4
2016-Sep-07 13:33N 67°37' E 014°41'10 9.1
2016-Sep-07 12:29N 67°36' E 015°06'4 0.4
2016-Sep-07 03:31N 67°36' E 014°57'1111.2
2016-Sep-07 02:33N 67°29' E 014°35'1111.4
2016-Sep-07 01:33N 67°19' E 014°19'1211.7
2016-Sep-07 00:33N 67°09' E 014°03'1111.5
2016-Sep-06 23:33N 67°01' E 013°43'3311.0
2016-Sep-06 20:32N 66°38' E 012°42'1111.2
2016-Sep-06 19:33N 66°27' E 012°37'1010.4
2016-Sep-06 18:33N 66°17' E 012°39'1310.7
2016-Sep-06 17:20N 66°04' E 012°38'50 8.4
2016-Sep-06 11:21N 65°16' E 011°57'910.3
2016-Sep-06 10:31N 65°08' E 011°49'9 9.9
2016-Sep-06 09:33N 65°00' E 011°38'10 9.9
2016-Sep-06 08:33N 64°54' E 011°20'1210.3
2016-Sep-06 07:27N 64°44' E 011°07'910.2
2016-Sep-06 06:34N 64°45' E 011°27'5 0.2
2016-Sep-05 06:26N 64°48' E 011°37'5 0.6
2016-Sep-04 21:22N 64°53' E 011°42'1 0.1
2016-Sep-04 12:25N 64°52' E 011°40'4 0.7
2016-Sep-04 06:17N 64°48' E 011°37'5 0.3
2016-Sep-03 11:15N 64°53' E 011°42'5 1.1
2016-Sep-03 06:32N 64°47' E 011°39'1 0.1
2016-Sep-02 15:33N 64°47' E 011°36'9 9.0
2016-Sep-02 14:33N 64°43' E 011°17'6 6.3
2016-Sep-02 13:33N 64°47' E 011°05'9 8.7
2016-Sep-02 12:33N 64°53' E 011°19'9 8.9
2016-Sep-02 11:33N 64°59' E 011°35'9 8.6
2016-Sep-02 10:33N 65°06' E 011°47'9 8.9
2016-Sep-02 09:33N 65°14' E 011°55'4 0.2
2016-Sep-01 16:12N 65°18' E 011°59'6 9.2
2016-Sep-01 15:32N 65°12' E 011°53'1010.6
2016-Sep-01 14:33N 65°03' E 011°43'10 9.8
2016-Sep-01 13:33N 64°56' E 011°26'1110.6
2016-Sep-01 12:33N 64°49' E 011°08'6 6.3
2016-Sep-01 11:33N 64°43' E 011°13'11 1.0
2016-Sep-01 01:10N 64°47' E 011°36'6 9.8
2016-Sep-01 00:33N 64°44' E 011°24'7 7.3
2016-Aug-31 23:33N 64°45' E 011°06'7 7.0
2016-Aug-31 22:33N 64°51' E 011°13'8 7.7
2016-Aug-31 21:33N 64°56' E 011°27'8 8.1
2016-Aug-31 20:33N 65°01' E 011°42'  
Track history (hours):
 
Tides and Currents Weather Stations Pressure Air Temp Water Temp Dewpoint Dewpoint Depression Visibility Wind Speed Wind Dir Waves Ship Positions

Rostein

Last reported at 2016-Sep-10 19:33 UTC. Time now 2016-Sep-28 01:45 UTC.
Position N 69°16' E 017°58'.
Warning: this ship's position is 17 days out of date.

Length 57 m; draft 4 m.

Type: Cargo ship. MMSI: 257210000.

Date/timePositionNaut miles runAvg speedWind from/ knotsBaromVisibWave heightAir tempDewpointWater temp
2016-Sep-10 19:33N 69°16' E 017°58'9 9.0
2016-Sep-10 18:33N 69°08' E 017°45'114 3.7
2016-Sep-09 12:05N 67°38' E 014°38'810.3
2016-Sep-09 11:20N 67°37' E 014°58'0 0.0
2016-Sep-08 22:06N 67°37' E 014°59'5 8.3
2016-Sep-08 21:29N 67°37' E 014°45'7 7.5
2016-Sep-08 20:30N 67°42' E 014°31'106 8.8
2016-Sep-08 08:28N 69°14' E 016°51'104 5.8
2016-Sep-07 14:33N 67°44' E 014°31'7 7.4
2016-Sep-07 13:33N 67°37' E 014°41'10 9.1
2016-Sep-07 12:29N 67°36' E 015°06'4 0.4
2016-Sep-07 03:31N 67°36' E 014°57'1111.2
2016-Sep-07 02:33N 67°29' E 014°35'1111.4
2016-Sep-07 01:33N 67°19' E 014°19'1211.7
2016-Sep-07 00:33N 67°09' E 014°03'1111.5
2016-Sep-06 23:33N 67°01' E 013°43'3311.0
2016-Sep-06 20:32N 66°38' E 012°42'1111.2
2016-Sep-06 19:33N 66°27' E 012°37'1010.4
2016-Sep-06 18:33N 66°17' E 012°39'1310.7
2016-Sep-06 17:20N 66°04' E 012°38'50 8.4
2016-Sep-06 11:21N 65°16' E 011°57'910.3
2016-Sep-06 10:31N 65°08' E 011°49'9 9.9
2016-Sep-06 09:33N 65°00' E 011°38'10 9.9
2016-Sep-06 08:33N 64°54' E 011°20'1210.3
2016-Sep-06 07:27N 64°44' E 011°07'910.2
2016-Sep-06 06:34N 64°45' E 011°27'5 0.2
2016-Sep-05 06:26N 64°48' E 011°37'5 0.6
2016-Sep-04 21:22N 64°53' E 011°42'1 0.1
2016-Sep-04 12:25N 64°52' E 011°40'4 0.7
2016-Sep-04 06:17N 64°48' E 011°37'5 0.3
2016-Sep-03 11:15N 64°53' E 011°42'5 1.1
2016-Sep-03 06:32N 64°47' E 011°39'1 0.1
2016-Sep-02 15:33N 64°47' E 011°36'9 9.0
2016-Sep-02 14:33N 64°43' E 011°17'6 6.3
2016-Sep-02 13:33N 64°47' E 011°05'9 8.7
2016-Sep-02 12:33N 64°53' E 011°19'9 8.9
2016-Sep-02 11:33N 64°59' E 011°35'9 8.6
2016-Sep-02 10:33N 65°06' E 011°47'9 8.9
2016-Sep-02 09:33N 65°14' E 011°55'4 0.2
2016-Sep-01 16:12N 65°18' E 011°59'6 9.2
2016-Sep-01 15:32N 65°12' E 011°53'1010.6
2016-Sep-01 14:33N 65°03' E 011°43'10 9.8
2016-Sep-01 13:33N 64°56' E 011°26'1110.6
2016-Sep-01 12:33N 64°49' E 011°08'6 6.3
2016-Sep-01 11:33N 64°43' E 011°13'11 1.0
2016-Sep-01 01:10N 64°47' E 011°36'6 9.8
2016-Sep-01 00:33N 64°44' E 011°24'7 7.3
2016-Aug-31 23:33N 64°45' E 011°06'7 7.0
2016-Aug-31 22:33N 64°51' E 011°13'8 7.7
2016-Aug-31 21:33N 64°56' E 011°27'8 8.1
2016-Aug-31 20:33N 65°01' E 011°42'  

Dump ship's entire track history